Time;durP1;ratioP1;P1;durP2;ratioP2;P2;SDS_P1;SDS_P2;PMS_P1;PMS_P2;Temp;Humidity;BMP_temperature;BMP_pressure;BME280_temperature;BME280_humidity;BME280_pressure;Samples;Min_cycle;Max_cycle;Signal;HPM_P1;HPM_P2
2023/08/02 00:01:56;;;;;;;2.63;1.20;;;24.20;96.20;;;;;;4956007;29;20816;-90
2023/08/02 00:04:22;;;;;;;1.63;1.20;;;24.20;96.30;;;;;;4955703;29;20946;-89
2023/08/02 00:06:51;;;;;;;1.73;1.40;;;24.20;96.30;;;;;;4955699;29;20440;-90
2023/08/02 00:09:18;;;;;;;1.60;1.20;;;24.20;96.30;;;;;;4956073;29;20448;-90
2023/08/02 00:11:44;;;;;;;1.63;1.50;;;24.20;96.40;;;;;;4956240;29;20491;-90
2023/08/02 00:14:11;;;;;;;1.30;1.20;;;24.20;96.30;;;;;;4955855;29;20441;-90
2023/08/02 00:16:38;;;;;;;1.30;1.10;;;24.20;96.40;;;;;;4955565;29;20943;-90
2023/08/02 00:19:05;;;;;;;1.70;1.30;;;24.20;96.40;;;;;;4956053;29;20881;-90
2023/08/02 00:21:31;;;;;;;1.60;1.30;;;24.20;96.40;;;;;;4955733;29;20545;-90
2023/08/02 00:24:00;;;;;;;1.67;1.33;;;24.20;96.40;;;;;;4955790;29;20876;-90
2023/08/02 00:26:28;;;;;;;1.53;1.23;;;24.20;96.30;;;;;;4955399;29;20470;-90
2023/08/02 00:28:55;;;;;;;1.27;1.00;;;24.20;96.40;;;;;;4955495;29;20864;-89
2023/08/02 00:31:21;;;;;;;1.60;1.07;;;24.20;96.30;;;;;;4955688;29;20499;-90
2023/08/02 00:33:48;;;;;;;1.67;1.50;;;24.20;96.50;;;;;;4955757;29;20456;-90
2023/08/02 00:36:15;;;;;;;1.50;1.20;;;24.20;96.50;;;;;;4956347;29;20779;-89
2023/08/02 00:38:42;;;;;;;1.77;1.67;;;24.20;96.40;;;;;;4955694;29;20535;-91
2023/08/02 00:41:10;;;;;;;1.30;1.00;;;24.20;96.50;;;;;;4955591;29;20453;-90
2023/08/02 00:43:40;;;;;;;1.67;1.30;;;24.20;96.60;;;;;;4955302;29;20941;-90
2023/08/02 00:46:08;;;;;;;1.20;1.10;;;24.20;96.60;;;;;;4955630;29;20447;-90
2023/08/02 00:48:35;;;;;;;2.40;1.40;;;24.20;96.40;;;;;;4958392;28;20920;-90
2023/08/02 00:51:02;;;;;;;1.40;1.13;;;24.20;96.60;;;;;;4959104;29;20603;-89
2023/08/02 00:53:29;;;;;;;1.10;1.00;;;24.20;96.70;;;;;;4959288;29;20444;-90
2023/08/02 00:55:57;;;;;;;1.50;1.40;;;24.20;96.60;;;;;;4959022;29;20945;-91
2023/08/02 00:58:25;;;;;;;1.40;1.20;;;24.20;96.60;;;;;;4959058;29;20835;-90
2023/08/02 01:00:52;;;;;;;1.40;1.20;;;24.20;96.60;;;;;;4958971;29;20438;-90
2023/08/02 01:03:20;;;;;;;1.17;1.07;;;24.20;96.60;;;;;;4959112;29;20451;-90
2023/08/02 01:05:59;;;;;;;1.30;1.00;;;24.20;96.70;;;;;;4959173;29;20460;-90
2023/08/02 01:08:32;;;;;;;1.70;1.30;;;24.20;96.60;;;;;;4959123;29;20444;-90
2023/08/02 01:11:06;;;;;;;2.43;1.43;;;24.10;96.60;;;;;;4959113;29;20537;-90
2023/08/02 01:13:37;;;;;;;1.23;1.00;;;24.10;96.70;;;;;;4958798;29;20442;-90
2023/08/02 01:16:05;;;;;;;1.67;1.07;;;24.10;96.70;;;;;;4958701;29;21049;-90
2023/08/02 01:18:32;;;;;;;2.10;1.40;;;24.10;96.60;;;;;;4958771;29;20820;-90
2023/08/02 01:21:00;;;;;;;2.13;1.23;;;24.10;96.50;;;;;;4958932;29;20921;-90
2023/08/02 01:23:28;;;;;;;1.50;1.10;;;24.10;96.60;;;;;;4958890;29;20532;-90
2023/08/02 01:25:58;;;;;;;1.73;1.10;;;24.10;96.50;;;;;;4958271;29;20493;-90
2023/08/02 01:28:27;;;;;;;1.30;1.10;;;24.10;96.60;;;;;;4958821;29;20478;-90
2023/08/02 01:30:54;;;;;;;1.70;1.60;;;24.10;96.50;;;;;;4958389;29;20505;-90
2023/08/02 01:33:22;;;;;;;1.40;1.20;;;24.10;96.70;;;;;;4958372;29;20459;-90
2023/08/02 01:35:49;;;;;;;1.30;1.20;;;24.20;96.60;;;;;;4958665;29;20816;-90
2023/08/02 01:38:18;;;;;;;1.20;1.10;;;24.10;96.50;;;;;;4958304;29;20450;-90
2023/08/02 01:40:45;;;;;;;1.30;1.20;;;24.10;96.60;;;;;;4958607;29;20446;-90
2023/08/02 01:43:12;;;;;;;1.50;1.10;;;24.10;96.50;;;;;;4958403;29;20445;-90
2023/08/02 01:45:38;;;;;;;1.50;1.00;;;24.10;96.60;;;;;;4958473;29;20827;-90
2023/08/02 01:48:05;;;;;;;1.90;1.13;;;24.10;96.70;;;;;;4958108;29;20446;-90
2023/08/02 01:50:32;;;;;;;1.50;1.20;;;24.10;96.70;;;;;;4958023;29;20572;-90
2023/08/02 01:52:59;;;;;;;1.30;1.10;;;24.10;96.60;;;;;;4958376;29;20613;-90
2023/08/02 01:58:49;;;;;;;1.37;1.20;;;24.10;96.50;;;;;;4957436;28;20403;-90
2023/08/02 02:01:16;;;;;;;1.73;1.40;;;24.10;96.70;;;;;;4957867;29;20449;-90
2023/08/02 02:03:43;;;;;;;1.30;1.10;;;24.10;96.60;;;;;;4958153;29;20453;-91
2023/08/02 02:06:09;;;;;;;1.30;1.20;;;24.10;96.70;;;;;;4957892;29;20543;-90
2023/08/02 02:08:37;;;;;;;1.20;1.00;;;24.10;96.70;;;;;;4957809;29;20455;-90
2023/08/02 02:11:04;;;;;;;1.70;1.00;;;24.10;96.70;;;;;;4957583;29;21001;-90
2023/08/02 02:13:32;;;;;;;1.50;1.10;;;24.10;96.50;;;;;;4958005;29;20491;-90
2023/08/02 02:16:00;;;;;;;1.17;1.00;;;24.10;96.50;;;;;;4957620;29;20522;-90
2023/08/02 02:18:27;;;;;;;1.63;1.13;;;24.10;96.60;;;;;;4957857;29;20547;-90
2023/08/02 02:20:53;;;;;;;1.17;0.90;;;24.10;96.60;;;;;;4957857;29;20451;-90
2023/08/02 02:23:20;;;;;;;1.43;1.10;;;24.10;96.50;;;;;;4957734;29;20451;-90
2023/08/02 02:25:47;;;;;;;1.20;1.00;;;24.10;96.60;;;;;;4957923;29;20480;-90
2023/08/02 02:28:14;;;;;;;1.40;1.20;;;24.10;96.70;;;;;;4957430;29;20542;-90
2023/08/02 02:30:43;;;;;;;1.30;1.00;;;24.10;96.60;;;;;;4957599;29;20490;-90
2023/08/02 02:33:11;;;;;;;1.30;1.17;;;24.10;96.70;;;;;;4957528;29;20513;-90
2023/08/02 02:35:38;;;;;;;1.83;1.07;;;24.10;96.70;;;;;;4957634;29;20953;-90
2023/08/02 02:38:04;;;;;;;1.40;0.90;;;24.10;96.60;;;;;;4957383;29;20454;-90
2023/08/02 02:40:31;;;;;;;1.53;1.10;;;24.10;96.50;;;;;;4957273;29;20486;-90
2023/08/02 02:42:58;;;;;;;2.03;1.50;;;24.10;96.50;;;;;;4957380;29;20447;-90
2023/08/02 02:45:25;;;;;;;1.30;1.10;;;24.10;96.70;;;;;;4957034;29;20447;-89
2023/08/02 02:47:53;;;;;;;1.33;1.23;;;24.10;96.70;;;;;;4957268;29;20452;-89
2023/08/02 02:50:21;;;;;;;1.30;1.00;;;24.10;96.70;;;;;;4957623;29;20455;-90
2023/08/02 02:52:48;;;;;;;1.33;1.13;;;24.10;96.70;;;;;;4957188;29;20443;-90
2023/08/02 02:55:15;;;;;;;1.93;1.00;;;24.10;96.70;;;;;;4957181;29;20468;-91
2023/08/02 02:57:41;;;;;;;1.60;1.20;;;24.10;96.70;;;;;;4956787;29;20450;-89
2023/08/02 03:00:09;;;;;;;1.43;1.03;;;24.00;96.70;;;;;;4957823;29;20876;-90
2023/08/02 03:02:36;;;;;;;1.60;1.43;;;24.00;96.80;;;;;;4956997;29;20448;-90
2023/08/02 03:05:03;;;;;;;1.93;1.30;;;24.10;97.20;;;;;;4956724;29;20535;-90
2023/08/02 03:07:31;;;;;;;1.20;1.00;;;24.10;96.80;;;;;;4956979;29;20443;-90
2023/08/02 03:09:58;;;;;;;1.43;1.03;;;24.10;96.80;;;;;;4956442;28;20446;-90
2023/08/02 03:12:25;;;;;;;1.87;1.10;;;24.10;96.80;;;;;;4956037;29;20500;-89
2023/08/02 03:14:52;;;;;;;1.30;1.10;;;24.00;96.90;;;;;;4956740;29;20451;-89
2023/08/02 03:17:19;;;;;;;1.70;1.23;;;24.00;97.00;;;;;;4956756;29;20541;-89
2023/08/02 03:19:46;;;;;;;1.50;1.30;;;24.00;97.00;;;;;;4956721;29;20479;-90
2023/08/02 03:22:12;;;;;;;1.30;1.10;;;24.10;96.80;;;;;;4956644;29;20495;-90
2023/08/02 03:24:40;;;;;;;1.60;1.40;;;24.00;97.20;;;;;;4956332;29;20454;-90
2023/08/02 03:27:07;;;;;;;1.30;1.20;;;24.00;96.90;;;;;;4956118;29;20476;-89
2023/08/02 03:29:35;;;;;;;1.30;1.10;;;24.00;96.80;;;;;;4956239;29;20628;-90
2023/08/02 03:32:02;;;;;;;2.47;1.03;;;24.00;96.90;;;;;;4956434;29;20893;-90
2023/08/02 03:34:29;;;;;;;2.10;1.40;;;24.00;96.90;;;;;;4956511;29;20478;-90
2023/08/02 03:36:55;;;;;;;1.90;0.97;;;24.10;97.00;;;;;;4956086;29;20459;-90
2023/08/02 03:39:26;;;;;;;1.27;1.00;;;24.00;97.00;;;;;;4956367;29;20944;-90
2023/08/02 03:45:17;;;;;;;1.37;0.90;;;24.10;96.90;;;;;;4956141;29;20477;-90
2023/08/02 03:47:43;;;;;;;2.50;1.33;;;24.00;97.10;;;;;;4956177;29;20450;-90
2023/08/02 03:50:10;;;;;;;1.50;1.27;;;24.00;97.20;;;;;;4956255;29;20458;-90
2023/08/02 03:52:37;;;;;;;1.70;1.20;;;24.00;97.00;;;;;;4955883;29;20487;-90
2023/08/02 03:55:05;;;;;;;1.50;1.20;;;24.00;97.00;;;;;;4955943;29;20461;-89
2023/08/02 03:57:31;;;;;;;1.63;0.90;;;24.00;97.10;;;;;;4955786;29;20443;-90
2023/08/02 03:59:58;;;;;;;1.30;1.10;;;24.00;96.90;;;;;;4956104;29;20446;-90
2023/08/02 04:02:26;;;;;;;1.00;0.80;;;24.00;97.00;;;;;;4955979;29;20441;-90
2023/08/02 04:08:15;;;;;;;1.10;1.00;;;24.00;96.90;;;;;;4955807;29;20461;-90
2023/08/02 04:10:42;;;;;;;1.57;1.00;;;24.00;96.90;;;;;;4956292;29;20442;-90
2023/08/02 04:13:09;;;;;;;1.83;1.40;;;24.00;97.00;;;;;;4955793;29;20491;-89
2023/08/02 04:15:36;;;;;;;1.50;1.20;;;24.00;97.20;;;;;;4955586;29;20455;-90
2023/08/02 04:18:04;;;;;;;1.10;0.90;;;24.00;97.00;;;;;;4955492;29;20444;-90
2023/08/02 04:20:31;;;;;;;1.60;1.17;;;24.00;97.10;;;;;;4955865;29;20446;-90
2023/08/02 04:22:58;;;;;;;1.30;1.10;;;24.00;97.10;;;;;;4955146;28;20450;-91
2023/08/02 04:25:25;;;;;;;1.30;0.93;;;24.00;97.10;;;;;;4955362;29;20483;-90
2023/08/02 04:27:52;;;;;;;1.20;1.00;;;24.00;97.20;;;;;;4955657;29;20454;-89
2023/08/02 04:30:19;;;;;;;2.17;1.20;;;24.00;97.10;;;;;;4955367;29;20448;-90
2023/08/02 04:32:46;;;;;;;1.17;1.00;;;24.00;97.20;;;;;;4955628;29;20507;-89
2023/08/02 04:35:14;;;;;;;1.20;1.00;;;24.00;97.20;;;;;;4955391;29;20542;-89
2023/08/02 04:37:41;;;;;;;1.40;1.20;;;24.00;97.40;;;;;;4955280;29;20537;-89
2023/08/02 04:40:09;;;;;;;1.40;1.20;;;24.00;97.20;;;;;;4955302;29;20534;-89
2023/08/02 04:42:36;;;;;;;2.87;1.20;;;24.00;97.20;;;;;;4955258;29;20537;-89
2023/08/02 04:45:02;;;;;;;1.20;0.90;;;24.00;97.10;;;;;;4955452;29;20449;-89
2023/08/02 04:47:29;;;;;;;1.80;1.70;;;24.00;97.10;;;;;;4956173;29;20959;-89
2023/08/02 04:49:58;;;;;;;1.70;1.17;;;24.00;97.10;;;;;;4955508;29;20451;-88
2023/08/02 04:52:26;;;;;;;1.40;1.30;;;24.00;97.00;;;;;;4955369;29;20501;-89
2023/08/02 04:58:15;;;;;;;2.33;1.03;;;24.00;97.10;;;;;;4955285;29;20947;-89
2023/08/02 05:00:42;;;;;;;1.37;1.27;;;24.00;97.30;;;;;;4955143;29;20456;-89
2023/08/02 05:03:08;;;;;;;2.23;1.10;;;24.00;97.10;;;;;;4955430;29;20933;-89
2023/08/02 05:05:35;;;;;;;1.37;1.00;;;24.00;97.10;;;;;;4955433;29;20452;-90
2023/08/02 05:08:03;;;;;;;1.13;1.03;;;24.00;97.00;;;;;;4955157;29;20551;-90
2023/08/02 05:10:30;;;;;;;2.10;1.80;;;24.00;97.00;;;;;;4955370;29;20446;-90
2023/08/02 05:12:57;;;;;;;1.20;1.00;;;24.00;97.00;;;;;;4955352;29;20483;-86
2023/08/02 05:15:24;;;;;;;1.20;1.10;;;24.10;97.30;;;;;;4954948;29;20442;-89
2023/08/02 05:17:50;;;;;;;1.50;1.40;;;24.10;97.00;;;;;;4955135;29;20450;-89
2023/08/02 05:20:17;;;;;;;1.20;1.10;;;24.10;97.00;;;;;;4954914;29;20448;-89
2023/08/02 05:22:44;;;;;;;1.50;0.93;;;24.10;97.00;;;;;;4955104;29;20451;-89
2023/08/02 05:25:12;;;;;;;1.50;1.00;;;24.10;97.00;;;;;;4954916;29;20595;-91
2023/08/02 05:27:39;;;;;;;1.50;1.23;;;24.10;97.00;;;;;;4955203;29;20437;-89
2023/08/02 05:30:07;;;;;;;1.43;1.20;;;24.10;97.00;;;;;;4955532;29;20445;-89
2023/08/02 05:32:34;;;;;;;1.63;1.23;;;24.10;97.00;;;;;;4955042;29;20851;-90
2023/08/02 05:35:01;;;;;;;1.93;1.30;;;24.10;97.10;;;;;;4957002;28;20458;-89
2023/08/02 05:37:29;;;;;;;3.30;1.20;;;24.10;97.10;;;;;;4958491;29;20447;-89
2023/08/02 05:39:56;;;;;;;1.43;1.33;;;24.10;97.20;;;;;;4958983;29;20453;-89
2023/08/02 05:42:24;;;;;;;1.30;1.13;;;24.10;97.10;;;;;;4958388;29;20447;-89
2023/08/02 05:44:51;;;;;;;1.70;1.13;;;24.10;97.10;;;;;;4958359;29;20449;-89
2023/08/02 05:47:18;;;;;;;1.97;1.03;;;24.10;97.20;;;;;;4958043;29;20447;-89
2023/08/02 05:49:45;;;;;;;1.30;1.20;;;24.10;97.20;;;;;;4958293;29;20822;-89
2023/08/02 05:52:12;;;;;;;1.20;1.00;;;24.20;97.20;;;;;;4958101;29;20594;-89
2023/08/02 05:54:45;;;;;;;1.80;1.27;;;24.10;97.20;;;;;;4957925;29;20486;-89
2023/08/02 05:57:11;;;;;;;1.63;1.20;;;24.20;97.20;;;;;;4958274;29;20455;-89
2023/08/02 05:59:58;;;;;;;1.87;1.20;;;24.20;97.20;;;;;;4957744;29;20442;-89
2023/08/02 06:02:25;;;;;;;1.40;1.03;;;24.20;97.20;;;;;;4958221;29;20495;-89
2023/08/02 06:04:52;;;;;;;1.50;1.20;;;24.20;97.20;;;;;;4957679;29;20452;-89
2023/08/02 06:07:18;;;;;;;1.30;1.17;;;24.20;97.30;;;;;;4957787;29;20459;-89
2023/08/02 06:09:48;;;;;;;1.43;1.33;;;24.20;97.30;;;;;;4957615;29;20445;-90
2023/08/02 06:12:18;;;;;;;1.77;1.30;;;24.20;97.30;;;;;;4957624;29;20488;-88
2023/08/02 06:14:47;;;;;;;1.70;1.50;;;24.20;97.20;;;;;;4958086;29;20475;-89
2023/08/02 06:17:19;;;;;;;1.90;1.70;;;24.00;97.10;;;;;;4957954;29;20545;-91
2023/08/02 06:19:54;;;;;;;4.53;1.53;;;24.10;97.10;;;;;;4957725;29;20450;-91
2023/08/02 06:22:24;;;;;;;8.80;1.50;;;24.10;97.00;;;;;;4958006;29;20436;-91
2023/08/02 06:24:51;;;;;;;1.70;1.60;;;24.10;96.80;;;;;;4957704;29;20866;-91
2023/08/02 06:27:17;;;;;;;1.47;1.30;;;24.10;97.00;;;;;;4938560;29;20544;-90
2023/08/02 06:29:51;;;;;;;1.50;1.40;;;24.10;97.00;;;;;;4938489;29;20446;-90
2023/08/02 06:32:21;;;;;;;1.53;1.00;;;24.10;97.10;;;;;;4938263;29;20483;-91
2023/08/02 06:34:51;;;;;;;1.87;1.33;;;24.10;97.10;;;;;;4938232;29;20450;-88
2023/08/02 06:37:21;;;;;;;3.87;1.50;;;24.10;97.20;;;;;;4937918;29;20448;-89
2023/08/02 06:39:51;;;;;;;1.60;1.50;;;24.10;97.20;;;;;;4938213;29;20446;-89
2023/08/02 06:42:17;;;;;;;4.17;1.57;;;24.10;97.20;;;;;;4937999;29;20451;-89
2023/08/02 06:44:46;;;;;;;2.13;1.50;;;24.10;97.30;;;;;;4938414;29;21003;-89
2023/08/02 06:47:12;;;;;;;3.57;1.30;;;24.10;97.30;;;;;;4938266;29;20443;-91
2023/08/02 06:49:39;;;;;;;1.70;1.53;;;24.30;97.40;;;;;;4938232;29;20448;-88
2023/08/02 06:52:09;;;;;;;2.97;1.50;;;24.10;97.40;;;;;;4938149;29;20510;-89
2023/08/02 06:54:40;;;;;;;2.40;1.40;;;24.20;97.30;;;;;;4938512;29;20447;-88
2023/08/02 06:57:08;;;;;;;2.20;1.57;;;24.10;97.20;;;;;;4937879;29;20527;-88
2023/08/02 06:59:35;;;;;;;1.97;1.40;;;24.10;97.20;;;;;;4937900;29;20452;-89
2023/08/02 07:02:14;;;;;;;3.67;1.90;;;24.10;97.00;;;;;;4937810;29;20452;-88
2023/08/02 07:04:43;;;;;;;1.40;1.20;;;24.20;97.10;;;;;;4938505;29;20818;-89
2023/08/02 07:07:15;;;;;;;1.40;1.30;;;24.20;97.10;;;;;;4938057;29;20469;-88
2023/08/02 07:09:47;;;;;;;2.83;1.37;;;24.20;97.20;;;;;;4937619;29;20446;-89
2023/08/02 07:12:14;;;;;;;2.60;1.50;;;24.10;97.00;;;;;;4937553;29;20472;-93
2023/08/02 07:14:41;;;;;;;1.60;1.20;;;24.10;97.20;;;;;;4937833;29;20955;-88
2023/08/02 07:17:11;;;;;;;1.53;1.23;;;24.10;97.10;;;;;;4937543;29;20553;-88
2023/08/02 07:19:39;;;;;;;3.83;1.50;;;24.10;97.20;;;;;;4937315;29;20478;-92
2023/08/02 07:22:17;;;;;;;1.50;1.40;;;24.20;97.40;;;;;;4937587;29;20462;-89
2023/08/02 07:24:46;;;;;;;1.40;1.30;;;24.20;97.40;;;;;;4937904;29;20483;-89
2023/08/02 07:27:13;;;;;;;1.43;1.23;;;24.10;97.30;;;;;;4955840;29;20475;-88
2023/08/02 07:29:40;;;;;;;1.30;1.20;;;24.10;97.30;;;;;;4956324;29;20444;-89
2023/08/02 07:32:09;;;;;;;2.63;1.70;;;24.10;97.70;;;;;;4956477;29;20492;-90
2023/08/02 07:34:35;;;;;;;2.27;1.73;;;24.10;97.40;;;;;;4956527;29;21045;-87
2023/08/02 07:37:02;;;;;;;3.40;1.60;;;24.10;97.40;;;;;;4956046;29;20443;-88
2023/08/02 07:39:29;;;;;;;2.83;1.47;;;24.10;97.60;;;;;;4955980;29;20443;-87
2023/08/02 07:41:56;;;;;;;1.60;1.50;;;24.10;97.50;;;;;;4955970;29;20487;-88
2023/08/02 07:44:23;;;;;;;2.10;1.90;;;24.10;97.60;;;;;;4955899;29;20432;-88
2023/08/02 07:46:50;;;;;;;4.13;2.10;;;24.10;97.80;;;;;;4956139;29;20448;-88
2023/08/02 07:49:18;;;;;;;2.40;1.87;;;24.10;97.90;;;;;;4956115;29;20862;-88
2023/08/02 07:51:45;;;;;;;2.00;1.43;;;24.10;97.80;;;;;;4956144;29;20445;-88
2023/08/02 07:54:12;;;;;;;1.83;1.33;;;24.00;97.70;;;;;;4955585;29;21023;-88
2023/08/02 07:56:38;;;;;;;1.50;1.30;;;24.00;97.70;;;;;;4955211;28;21051;-88
2023/08/02 07:59:05;;;;;;;4.50;1.67;;;24.00;97.70;;;;;;4956114;29;20457;-88
2023/08/02 08:01:32;;;;;;;3.27;1.67;;;24.00;97.80;;;;;;4955959;29;20451;-88
2023/08/02 08:03:59;;;;;;;5.00;1.50;;;24.00;97.80;;;;;;4955953;29;20449;-88
2023/08/02 08:06:27;;;;;;;2.47;1.40;;;24.10;97.80;;;;;;4955754;29;20446;-88
2023/08/02 08:08:54;;;;;;;2.40;1.77;;;24.00;97.70;;;;;;4955432;29;20939;-87
2023/08/02 08:11:20;;;;;;;3.97;1.37;;;24.10;97.70;;;;;;4955805;29;20437;-87
2023/08/02 08:13:51;;;;;;;2.13;1.53;;;24.10;97.70;;;;;;4955352;29;20488;-88
2023/08/02 08:16:18;;;;;;;3.23;1.27;;;24.00;97.70;;;;;;4955131;29;20462;-87
2023/08/02 08:18:47;;;;;;;3.90;1.40;;;24.10;97.70;;;;;;4955384;29;20447;-86
2023/08/02 08:21:16;;;;;;;1.50;1.33;;;24.10;97.80;;;;;;4955688;29;20825;-86
2023/08/02 08:23:44;;;;;;;2.67;1.50;;;24.10;97.80;;;;;;4955370;29;20949;-87
2023/08/02 08:26:13;;;;;;;2.53;1.50;;;24.10;98.00;;;;;;4955327;29;20486;-87
2023/08/02 08:28:40;;;;;;;1.33;1.23;;;24.00;97.80;;;;;;4955673;29;20824;-88
2023/08/02 08:31:07;;;;;;;3.70;1.40;;;24.00;97.90;;;;;;4955531;29;20441;-87
2023/08/02 08:33:34;;;;;;;4.60;1.40;;;24.10;98.00;;;;;;4955252;29;20489;-86
2023/08/02 08:36:01;;;;;;;2.87;1.20;;;24.10;97.90;;;;;;4955339;29;20549;-86
2023/08/02 08:38:31;;;;;;;2.60;1.10;;;24.10;98.00;;;;;;4955517;29;20808;-86
2023/08/02 08:41:00;;;;;;;1.43;1.20;;;24.10;98.00;;;;;;4955235;29;20919;-87
2023/08/02 08:43:28;;;;;;;1.67;1.50;;;24.00;98.10;;;;;;4955424;29;20452;-86
2023/08/02 08:45:55;;;;;;;1.30;1.10;;;24.00;98.10;;;;;;4955456;29;20539;-86
2023/08/02 08:48:23;;;;;;;1.20;1.10;;;24.20;98.20;;;;;;4955464;29;20468;-86
2023/08/02 08:50:51;;;;;;;1.77;1.10;;;24.10;98.30;;;;;;4955436;29;20502;-85
2023/08/02 08:53:26;;;;;;;1.70;1.37;;;24.10;98.30;;;;;;4955394;29;20581;-86
2023/08/02 08:55:58;;;;;;;1.60;1.30;;;24.20;98.30;;;;;;4955473;29;20430;-85
2023/08/02 08:58:36;;;;;;;2.47;1.10;;;24.10;98.30;;;;;;4955385;29;20492;-85
2023/08/02 09:01:04;;;;;;;2.50;1.50;;;24.10;98.40;;;;;;4955297;29;20441;-86
2023/08/02 09:03:31;;;;;;;1.20;1.10;;;24.10;98.40;;;;;;4955225;29;20455;-86
2023/08/02 09:06:00;;;;;;;2.00;1.17;;;24.10;98.40;;;;;;4955321;29;20458;-86
2023/08/02 09:08:27;;;;;;;1.47;1.03;;;24.00;98.50;;;;;;4955323;28;20456;-86
2023/08/02 09:10:58;;;;;;;1.20;1.10;;;24.10;98.50;;;;;;4958433;29;20935;-86
2023/08/02 09:13:29;;;;;;;1.20;0.90;;;24.10;98.60;;;;;;4958924;29;20498;-86
2023/08/02 09:16:12;;;;;;;1.20;0.97;;;24.00;98.70;;;;;;4958926;29;20434;-86
2023/08/02 09:18:41;;;;;;;1.50;1.40;;;23.90;98.70;;;;;;4958953;29;20512;-85
2023/08/02 09:21:21;;;;;;;1.30;1.00;;;24.00;98.70;;;;;;4958761;29;20469;-87
2023/08/02 09:23:48;;;;;;;1.23;1.13;;;24.10;98.90;;;;;;4958839;29;20436;-86
2023/08/02 09:26:21;;;;;;;1.80;1.20;;;24.10;98.70;;;;;;4958291;29;20564;-86
2023/08/02 09:29:03;;;;;;;1.20;1.10;;;23.90;98.60;;;;;;4958692;29;20443;-86
2023/08/02 09:31:32;;;;;;;1.20;1.00;;;24.10;98.80;;;;;;4959098;29;20435;-85
2023/08/02 09:34:01;;;;;;;1.90;1.20;;;24.10;98.80;;;;;;4958581;29;20578;-86
2023/08/02 09:36:29;;;;;;;1.40;1.10;;;24.10;98.70;;;;;;4958559;29;20476;-88
2023/08/02 09:39:02;;;;;;;1.47;1.30;;;24.10;98.70;;;;;;4958468;29;20523;-88
2023/08/02 09:41:30;;;;;;;2.63;1.27;;;24.10;98.70;;;;;;4958565;29;20499;-88
2023/08/02 09:43:57;;;;;;;1.30;1.00;;;24.10;98.70;;;;;;4958491;29;20447;-87
2023/08/02 09:46:28;;;;;;;1.20;1.00;;;24.10;98.60;;;;;;4958436;29;20443;-87
2023/08/02 09:48:55;;;;;;;1.20;1.10;;;24.10;98.60;;;;;;4958393;29;20827;-87
2023/08/02 09:51:22;;;;;;;1.30;0.93;;;24.10;98.80;;;;;;4958341;29;20493;-88
2023/08/02 09:53:55;;;;;;;1.23;1.13;;;24.10;98.90;;;;;;4958259;29;20501;-87
2023/08/02 09:56:25;;;;;;;1.27;1.17;;;24.20;98.80;;;;;;4958239;29;20485;-88
2023/08/02 09:58:55;;;;;;;1.80;1.47;;;24.10;98.70;;;;;;4958135;29;20502;-87
2023/08/02 10:01:23;;;;;;;1.23;1.00;;;24.10;98.70;;;;;;4957780;29;20447;-88
2023/08/02 10:03:55;;;;;;;1.60;0.93;;;24.10;98.50;;;;;;4958014;29;20448;-87
2023/08/02 10:06:24;;;;;;;1.10;1.00;;;24.20;98.70;;;;;;4958103;29;20800;-87
2023/08/02 10:08:54;;;;;;;1.20;1.03;;;24.20;98.70;;;;;;4957877;29;20540;-86
2023/08/02 10:11:22;;;;;;;1.03;0.80;;;24.20;98.80;;;;;;4958022;29;20455;-88
2023/08/02 10:13:52;;;;;;;1.30;1.20;;;24.20;98.70;;;;;;4957386;29;20487;-88
2023/08/02 10:16:21;;;;;;;1.10;1.00;;;24.20;98.70;;;;;;4957944;29;20436;-88
2023/08/02 10:18:50;;;;;;;1.20;1.10;;;24.20;98.80;;;;;;4957687;29;20448;-86
2023/08/02 10:21:19;;;;;;;1.20;0.90;;;24.20;98.70;;;;;;4957307;28;20451;-88
2023/08/02 10:23:46;;;;;;;1.73;1.50;;;24.20;98.70;;;;;;4957755;29;20446;-87
2023/08/02 10:26:14;;;;;;;1.00;0.80;;;24.20;98.80;;;;;;4957408;29;20820;-87
2023/08/02 10:28:41;;;;;;;1.20;1.10;;;24.20;98.80;;;;;;4957460;29;20498;-88
2023/08/02 10:31:09;;;;;;;1.13;0.90;;;24.20;98.60;;;;;;4957534;29;20811;-88
2023/08/02 10:33:36;;;;;;;2.00;1.20;;;24.20;98.70;;;;;;4957492;29;20496;-88
2023/08/02 10:36:05;;;;;;;1.20;1.10;;;24.20;98.70;;;;;;4957450;29;20454;-88
2023/08/02 10:38:52;;;;;;;1.10;0.90;;;24.20;98.70;;;;;;4957438;29;20466;-88
2023/08/02 10:41:20;;;;;;;1.50;1.17;;;24.20;98.80;;;;;;4957350;29;20423;-88
2023/08/02 10:44:11;;;;;;;1.67;1.03;;;24.20;98.80;;;;;;4957410;29;20876;-88
2023/08/02 10:46:37;;;;;;;1.40;1.20;;;24.20;98.80;;;;;;4957062;29;20439;-88
2023/08/02 10:49:36;;;;;;;1.40;1.00;;;24.20;98.80;;;;;;4957186;29;20443;-88
2023/08/02 10:52:27;;;;;;;1.10;0.90;;;24.20;98.90;;;;;;4957183;29;20457;-87
2023/08/02 10:55:07;;;;;;;1.10;0.80;;;24.20;99.10;;;;;;4957202;29;20482;-88
2023/08/02 10:57:34;;;;;;;1.40;0.90;;;24.20;99.40;;;;;;4957135;29;20453;-88
2023/08/02 11:00:01;;;;;;;1.10;0.80;;;24.20;99.20;;;;;;4956788;29;20456;-88
2023/08/02 11:02:45;;;;;;;1.50;1.27;;;24.20;99.00;;;;;;4956786;29;20442;-88
2023/08/02 11:05:12;;;;;;;1.80;1.00;;;24.20;98.70;;;;;;4957097;29;20796;-88
2023/08/02 11:07:39;;;;;;;1.20;1.00;;;24.30;98.80;;;;;;4956573;29;20956;-89
2023/08/02 11:10:07;;;;;;;1.30;1.07;;;24.30;98.50;;;;;;4957578;29;20790;-88
2023/08/02 11:12:34;;;;;;;1.30;0.90;;;24.40;98.50;;;;;;4956347;29;20447;-87
2023/08/02 11:15:01;;;;;;;1.13;0.90;;;24.40;98.30;;;;;;4956328;29;20489;-86
2023/08/02 11:17:28;;;;;;;1.10;0.90;;;24.40;98.40;;;;;;4964589;29;20452;-86
2023/08/02 11:19:57;;;;;;;1.20;0.90;;;24.40;98.40;;;;;;4956507;29;20440;-86
2023/08/02 11:22:25;;;;;;;1.10;0.87;;;24.40;98.70;;;;;;4956241;29;20962;-86
2023/08/02 11:24:54;;;;;;;1.50;0.90;;;24.40;98.70;;;;;;4956229;29;20457;-86
2023/08/02 11:27:27;;;;;;;1.10;1.00;;;24.40;98.50;;;;;;4956436;29;20426;-86
2023/08/02 11:32:53;;;;;;;1.23;1.10;;;24.40;98.80;;;;;;4945022;28;20444;-87
2023/08/02 11:35:42;;;;;;;3.10;0.90;;;24.40;98.80;;;;;;4956161;29;20530;-86
2023/08/02 11:38:12;;;;;;;1.27;0.80;;;24.40;98.70;;;;;;4950382;29;20447;-86
2023/08/02 11:40:58;;;;;;;1.10;0.80;;;24.40;98.70;;;;;;4956246;29;20836;-85
2023/08/02 11:43:36;;;;;;;1.63;1.00;;;24.40;98.60;;;;;;4955945;29;20487;-86
2023/08/02 11:46:27;;;;;;;1.10;1.00;;;24.40;98.80;;;;;;4955816;29;20431;-86
2023/08/02 11:49:13;;;;;;;1.20;0.80;;;24.40;98.60;;;;;;4957067;29;20437;-87
2023/08/02 11:51:41;;;;;;;1.40;0.90;;;24.50;98.70;;;;;;4955777;29;20436;-87
2023/08/02 11:54:11;;;;;;;2.60;1.00;;;24.50;98.60;;;;;;4955705;29;20495;-87
2023/08/02 11:56:44;;;;;;;1.30;1.10;;;24.70;98.90;;;;;;4955981;29;20451;-87
2023/08/02 11:59:19;;;;;;;1.30;1.00;;;24.40;98.70;;;;;;4959603;29;20429;-85
2023/08/02 12:01:49;;;;;;;1.40;0.80;;;24.50;98.80;;;;;;4960100;29;20436;-85
2023/08/02 12:04:19;;;;;;;2.33;0.90;;;24.50;98.70;;;;;;4961398;29;20452;-84
2023/08/02 12:06:50;;;;;;;1.10;0.80;;;24.50;98.80;;;;;;4960163;29;20445;-85
2023/08/02 12:09:19;;;;;;;3.10;1.00;;;24.50;98.80;;;;;;4956128;29;20431;-85
2023/08/02 12:11:53;;;;;;;1.83;0.77;;;24.50;98.80;;;;;;4955652;29;20446;-85
2023/08/02 12:14:29;;;;;;;1.47;0.90;;;24.50;98.90;;;;;;4955338;29;20479;-86
2023/08/02 12:16:56;;;;;;;2.27;1.40;;;24.50;99.00;;;;;;4956124;29;20796;-89
2023/08/02 12:19:38;;;;;;;4.60;1.10;;;24.40;98.90;;;;;;4955991;29;20815;-88
2023/08/02 12:22:05;;;;;;;0.97;0.70;;;24.40;98.80;;;;;;4955998;29;20432;-89
2023/08/02 12:24:31;;;;;;;1.60;1.00;;;24.50;98.70;;;;;;4955656;29;20451;-89
2023/08/02 12:27:12;;;;;;;1.23;0.87;;;24.50;98.70;;;;;;4955365;29;20487;-90
2023/08/02 12:29:40;;;;;;;2.13;0.90;;;24.50;98.60;;;;;;4955924;29;20427;-90
2023/08/02 12:32:07;;;;;;;1.20;0.90;;;24.70;98.80;;;;;;4955408;29;20965;-89
2023/08/02 12:34:36;;;;;;;1.67;1.00;;;24.50;98.60;;;;;;4955689;29;20975;-89
2023/08/02 12:37:02;;;;;;;2.63;0.90;;;24.60;98.70;;;;;;4955127;29;20447;-89
2023/08/02 12:39:29;;;;;;;1.10;0.80;;;24.70;98.80;;;;;;4955460;29;20449;-89
2023/08/02 12:41:56;;;;;;;1.10;0.80;;;24.60;98.60;;;;;;4955823;29;20451;-89
2023/08/02 12:44:23;;;;;;;1.83;0.80;;;24.60;98.70;;;;;;4958500;28;20447;-90
2023/08/02 12:46:51;;;;;;;1.20;0.90;;;24.60;98.60;;;;;;4959531;29;20453;-89
2023/08/02 12:49:18;;;;;;;1.00;0.70;;;24.60;98.70;;;;;;4959330;29;20460;-90
2023/08/02 12:51:45;;;;;;;2.27;0.80;;;24.70;98.80;;;;;;4959533;29;20445;-89
2023/08/02 12:54:13;;;;;;;1.07;0.83;;;24.60;98.70;;;;;;4959107;29;21018;-89
2023/08/02 12:56:51;;;;;;;1.03;0.90;;;24.60;98.80;;;;;;4959405;29;20801;-89
2023/08/02 13:02:03;;;;;;;0.97;0.70;;;24.70;98.90;;;;;;4900387;29;20450;-88
2023/08/02 13:04:33;;;;;;;1.00;0.80;;;24.70;98.80;;;;;;4958911;29;20530;-89
2023/08/02 13:07:00;;;;;;;1.20;0.90;;;24.70;98.70;;;;;;4959296;29;20467;-89
2023/08/02 13:09:29;;;;;;;1.10;0.80;;;24.70;99.00;;;;;;4959370;29;20447;-90
2023/08/02 13:11:55;;;;;;;1.50;1.00;;;24.70;98.90;;;;;;4959314;29;20443;-89
2023/08/02 13:14:24;;;;;;;2.40;1.00;;;24.60;98.80;;;;;;4959243;29;20492;-89
2023/08/02 13:16:56;;;;;;;1.00;0.70;;;24.60;99.00;;;;;;4958939;29;20455;-87